KV6O Weather Reports


Display with metric or nautical units.
time (UTC)temp
F
wind
direction
speed
MPH
gust
MPH
rain 1hr
in
rain 24hr
in
rain mn
in
humidity
%
barometer
mb
20210920013213 61 360 1.0 8.0 0.00 0.00 0.00 47
20210920012414 61 298 9.0 8.0 0.00 0.00 0.00 45
20210920011614 62 284 2.0 3.0 0.00 0.00 0.00 45
20210920010814 0 0 0.0 0.0 0.00 0.00 0.00 100
20210920010013 63 51 7.0 8.0 0.00 0.00 0.00 44
20210920005613 64 58 2.0 5.0 0.00 0.00 0.00 42
20210920004812 64 223 0.0 6.0 0.00 0.00 0.00 43
20210920004014 65 229 4.0 7.0 0.00 0.00 0.00 42
20210920003214 65 54 1.0 2.0 0.00 0.00 0.00 41
20210920002413 66 88 1.0 3.0 0.00 0.00 0.00 41
20210920001612 66 8 0.0 10.0 0.00 0.00 0.00 39
20210920000813 67 340 4.0 10.0 0.00 0.00 0.00 39
20210920000013 67 294 5.0 13.0 0.00 0.00 0.00 38
20210919235614 0 0 0.0 0.0 0.00 0.00 0.00 100
20210919234812 67 151 3.0 11.0 0.00 0.00 0.00 39
20210919234012 68 165 6.0 6.0 0.00 0.00 0.00 38
20210919233212 69 3 4.0 6.0 0.00 0.00 0.00 36
20210919232412 70 353 3.0 10.0 0.00 0.00 0.00 36
20210919231610 70 330 4.0 14.0 0.00 0.00 0.00 34
20210919230812 71 244 3.0 5.0 0.00 0.00 0.00 34
20210919230014 71 27 1.0 7.0 0.00 0.00 0.00 35
20210919225615 0 0 0.0 0.0 0.00 0.00 0.00 100
20210919224814 0 0 0.0 0.0 0.00 0.00 0.00 100
20210919224014 72 23 6.0 11.0 0.00 0.00 0.00 33
20210919223212 72 10 4.0 12.0 0.00 0.00 0.00 33
20210919222413 72 344 9.0 17.0 0.00 0.00 0.00 33
20210919221613 72 23 8.0 14.0 0.00 0.00 0.00 33
20210919220813 71 298 7.0 11.0 0.00 0.00 0.00 32
20210919220014 71 10 7.0 16.0 0.00 0.00 0.00 35
20210919215613 71 309 8.0 21.0 0.00 0.00 0.00 34
20210919214814 71 18 8.0 20.0 0.00 0.00 0.00 34
20210919214015 71 32 7.0 44.0 0.00 0.00 0.00 34
20210919213214 71 37 19.0 34.0 0.00 0.00 0.00 34
20210919212413 71 28 13.0 18.0 0.00 0.00 0.00 35
20210919211611 71 0 6.0 19.0 0.00 0.00 0.00 34
20210919210813 71 195 9.0 20.0 0.00 0.00 0.00 34
20210919210016 0 0 0.0 0.0 0.00 0.00 0.00 100
20210919205615 71 171 0.0 6.0 0.00 0.00 0.00 36
20210919204816 0 0 0.0 0.0 0.00 0.00 0.00 100
20210919204012 71 313 13.0 23.0 0.00 0.00 0.00 34
20210919203215 0 0 0.0 0.0 0.00 0.00 0.00 100
20210919202413 71 8 14.0 20.0 0.00 0.00 0.00 35
20210919201613 71 178 7.0 16.0 0.00 0.00 0.00 34
20210919200814 70 284 7.0 12.0 0.00 0.00 0.00 35
20210919200013 70 243 6.0 22.0 0.00 0.00 0.00 36
20210919195613 70 344 7.0 11.0 0.00 0.00 0.00 35
20210919194813 70 178 7.0 20.0 0.00 0.00 0.00 35
20210919194014 0 0 0.0 0.0 0.00 0.00 0.00 100
20210919193215 0 0 0.0 0.0 0.00 0.00 0.00 100
20210919192412 69 52 10.0 30.0 0.00 0.00 0.00 34
20210919191614 0 0 0.0 0.0 0.00 0.00 0.00 100
20210919190814 70 25 5.0 19.0 0.00 0.00 0.00 34
20210919190014 70 6 12.0 22.0 0.00 0.00 0.00 34
20210919185613 70 326 7.0 14.0 0.00 0.00 0.00 33
20210919184814 72 344 7.0 18.0 0.00 0.00 0.00 32
20210919184012 72 227 1.0 18.0 0.00 0.00 0.00 32
20210919183215 71 356 5.0 16.0 0.00 0.00 0.00 33
20210919182413 71 16 11.0 22.0 0.00 0.00 0.00 35
20210919181613 71 4 11.0 19.0 0.00 0.00 0.00 34
20210919180813 70 17 5.0 11.0 0.00 0.00 0.00 34
20210919180013 69 18 4.0 12.0 0.00 0.00 0.00 38
20210919175613 69 30 8.0 13.0 0.00 0.00 0.00 38
20210919174813 69 11 6.0 22.0 0.00 0.00 0.00 37
20210919174012 69 356 6.0 18.0 0.00 0.00 0.00 36
20210919173213 68 68 2.0 22.0 0.00 0.00 0.00 38
20210919172412 68 206 9.0 24.0 0.00 0.00 0.00 38
20210919171613 68 326 2.0 18.0 0.00 0.00 0.00 40
20210919170814 0 0 0.0 0.0 0.00 0.00 0.00 100
20210919170014 68 17 3.0 14.0 0.00 0.00 0.00 38
20210919165614 69 7 10.0 13.0 0.00 0.00 0.00 38
20210919164814 68 93 7.0 9.0 0.00 0.00 0.00 43
20210919164010 66 360 7.0 9.0 0.00 0.00 0.00 44
20210919163213 65 13 2.0 13.0 0.00 0.00 0.00 44
20210919162412 65 251 4.0 13.0 0.00 0.00 0.00 45
20210919161614 64 275 6.0 16.0 0.00 0.00 0.00 45
20210919160812 64 223 3.0 26.0 0.00 0.00 0.00 46
20210919160013 63 251 6.0 12.0 0.00 0.00 0.00 47
20210919155614 63 174 4.0 15.0 0.00 0.00 0.00 48
20210919154814 63 172 7.0 10.0 0.00 0.00 0.00 48
20210919154014 0 0 0.0 0.0 0.00 0.00 0.00 100
20210919153214 63 246 6.0 11.0 0.00 0.00 0.00 49
20210919152413 63 251 16.0 9.0 0.00 0.00 0.00 49
20210919151613 62 4 5.0 8.0 0.00 0.00 0.00 49
20210919150815 62 7 2.0 7.0 0.00 0.00 0.00 49
20210919150013 61 312 1.0 8.0 0.00 0.00 0.00 50
20210919145613 61 333 2.0 4.0 0.00 0.00 0.00 51
20210919144813 60 24 4.0 13.0 0.00 0.00 0.00 51
20210919144013 60 230 4.0 17.0 0.00 0.00 0.00 52
20210919143213 60 347 7.0 15.0 0.00 0.00 0.00 52
20210919142412 60 284 7.0 16.0 0.00 0.00 0.00 52
20210919141613 59 208 8.0 12.0 0.00 0.00 0.00 53
20210919140812 59 342 2.0 8.0 0.00 0.00 0.00 53
20210919140013 59 14 4.0 12.0 0.00 0.00 0.00 51
20210919135612 58 282 3.0 17.0 0.00 0.00 0.00 50
20210919134811 58 323 9.0 20.0 0.00 0.00 0.00 51
20210919134015 0 0 0.0 0.0 0.00 0.00 0.00 100
20210919133213 57 291 5.0 6.0 0.00 0.00 0.00 51
20210919132414 58 322 2.0 7.0 0.00 0.00 0.00 52
20210919131615 0 0 0.0 0.0 0.00 0.00 0.00 100
20210919130812 55 263 5.0 12.0 0.00 0.00 0.00 55
20210919130014 0 0 0.0 0.0 0.00 0.00 0.00 100
20210919125614 55 14 0.0 9.0 0.00 0.00 0.00 60
20210919124814 0 0 0.0 0.0 0.00 0.00 0.00 100
20210919124012 57 234 0.0 2.0 0.00 0.00 0.00 58
20210919123212 57 359 0.0 6.0 0.00 0.00 0.00 58
20210919122413 56 243 2.0 11.0 0.00 0.00 0.00 57
20210919121614 0 0 0.0 0.0 0.00 0.00 0.00 100
20210919120811 56 24 3.0 3.0 0.00 0.00 0.00 61
20210919120014 0 0 0.0 0.0 0.00 0.00 0.00 100
20210919115613 57 278 3.0 0.0 0.00 0.00 0.00 59
20210919114816 0 0 0.0 0.0 0.00 0.00 0.00 100
20210919114014 0 0 0.0 0.0 0.00 0.00 0.00 100
20210919113214 58 336 0.0 4.0 0.00 0.00 0.00 57
20210919112413 58 21 0.0 1.0 0.00 0.00 0.00 56
20210919111614 59 333 0.0 6.0 0.00 0.00 0.00 56
20210919110815 0 0 0.0 0.0 0.00 0.00 0.00 100
20210919110013 59 251 1.0 15.0 0.00 0.00 0.00 53
20210919105612 58 246 4.0 12.0 0.00 0.00 0.00 55
20210919104811 56 263 5.0 9.0 0.00 0.00 0.00 58
20210919104015 0 0 0.0 0.0 0.00 0.00 0.00 100
20210919103212 56 285 3.0 3.0 0.00 0.00 0.00 60
20210919102414 0 0 0.0 0.0 0.00 0.00 0.00 100
20210919101612 57 34 0.0 10.0 0.00 0.00 0.00 58
20210919100814 58 14 1.0 9.0 0.00 0.00 0.00 58
20210919100012 58 14 2.0 9.0 0.00 0.00 0.00 56
20210919095613 59 360 2.0 14.0 0.00 0.00 0.00 55
20210919094813 59 14 7.0 7.0 0.00 0.00 0.00 55
20210919094013 59 14 2.0 7.0 0.00 0.00 0.00 54
20210919093213 60 339 5.0 8.0 0.00 0.00 0.00 54
20210919092412 60 3 1.0 10.0 0.00 0.00 0.00 52
20210919091614 0 0 0.0 0.0 0.00 0.00 0.00 100
20210919090812 61 3 2.0 11.0 0.00 0.00 0.00 50
20210919090013 61 27 4.0 26.0 0.00 0.00 0.00 50
20210919085613 61 174 11.0 34.0 0.00 0.00 0.00 50
20210919084813 61 16 14.0 22.0 0.00 0.00 0.00 50
20210919084014 0 0 0.0 0.0 0.00 0.00 0.00 100
20210919083212 61 360 7.0 9.0 0.00 0.00 0.00 49
20210919082413 62 315 2.0 16.0 0.00 0.00 0.00 49
20210919081612 62 254 8.0 14.0 0.00 0.00 0.00 49
20210919080813 62 7 3.0 17.0 0.00 0.00 0.00 48
20210919080013 62 7 5.0 17.0 0.00 0.00 0.00 48
20210919075611 62 336 10.0 16.0 0.00 0.00 0.00 47
20210919074813 63 17 3.0 23.0 0.00 0.00 0.00 47
20210919074012 63 17 3.0 23.0 0.00 0.00 0.00 46
20210919073214 0 0 0.0 0.0 0.00 0.00 0.00 100
20210919072413 62 58 10.0 33.0 0.00 0.00 0.00 47
20210919071614 62 337 12.0 16.0 0.00 0.00 0.00 48
20210919070813 62 167 2.0 9.0 0.00 0.00 0.00 48
20210919070014 63 167 0.0 9.0 0.00 0.00 0.00 46
20210919065613 63 182 1.0 9.0 0.00 0.00 0.00 46
20210919064814 63 28 3.0 11.0 0.00 0.00 0.00 45
20210919064014 0 0 0.0 0.0 0.00 0.00 0.00 100
20210919063213 63 237 4.0 9.0 0.00 0.00 0.00 45
20210919062415 0 0 0.0 0.0 0.00 0.00 0.00 100
20210919061614 63 176 0.0 5.0 0.00 0.00 0.00 44
20210919060813 63 337 1.0 8.0 0.00 0.00 0.00 43
20210919060012 64 55 4.0 6.0 0.00 0.00 0.00 43
20210919055613 64 37 0.0 9.0 0.00 0.00 0.00 42
20210919054815 64 336 5.0 8.0 0.00 0.00 0.00 41
20210919054012 64 230 4.0 13.0 0.00 0.00 0.00 41
20210919053216 0 0 0.0 0.0 0.00 0.00 0.00 100
20210919052414 0 0 0.0 0.0 0.00 0.00 0.00 100
20210919051614 65 198 0.0 12.0 0.00 0.00 0.00 39
20210919050813 65 319 5.0 20.0 0.00 0.00 0.00 40
20210919050014 0 0 0.0 0.0 0.00 0.00 0.00 100
20210919045613 65 65 0.0 11.0 0.00 0.00 0.00 40
20210919044814 65 44 1.0 11.0 0.00 0.00 0.00 40
20210919044013 64 21 1.0 13.0 0.00 0.00 0.00 41
20210919043213 63 319 3.0 12.0 0.00 0.00 0.00 42
20210919042412 61 258 5.0 9.0 0.00 0.00 0.00 44
20210919041614 0 0 0.0 0.0 0.00 0.00 0.00 100
20210919040815 61 296 3.0 3.0 0.00 0.00 0.00 45
20210919040015 0 0 0.0 0.0 0.00 0.00 0.00 100
20210919035612 61 282 0.0 1.0 0.00 0.00 0.00 44
20210919034813 62 217 3.0 1.0 0.00 0.00 0.00 43
20210919034012 62 0 0.0 0.0 0.00 0.00 0.00 41
20210919033213 63 0 0.0 0.0 0.00 0.00 0.00 40
20210919032412 64 257 0.0 5.0 0.00 0.00 0.00 39
20210919031612 64 236 2.0 5.0 0.00 0.00 0.00 39
20210919030815 0 0 0.0 0.0 0.00 0.00 0.00 100
20210919030012 65 224 3.0 9.0 0.00 0.00 0.00 39
20210919025613 65 222 4.0 10.0 0.00 0.00 0.00 39
20210919024812 65 260 6.0 9.0 0.00 0.00 0.00 39
20210919024013 65 240 3.0 8.0 0.00 0.00 0.00 40
20210919023213 65 246 7.0 9.0 0.00 0.00 0.00 41
20210919022415 65 239 4.0 10.0 0.00 0.00 0.00 41
20210919021614 0 0 0.0 0.0 0.00 0.00 0.00 100
20210919020813 64 215 8.0 5.0 0.00 0.00 0.00 43
20210919020014 64 189 1.0 5.0 0.00 0.00 0.00 43
20210919015613 64 243 1.0 5.0 0.00 0.00 0.00 44
20210919014814 64 237 0.0 7.0 0.00 0.00 0.00 43
20210919014013 65 246 1.0 6.0 0.00 0.00 0.00 43